Time;durP1;ratioP1;P1;durP2;ratioP2;P2;SDS_P1;SDS_P2;PMS_P1;PMS_P2;Temp;Humidity;BMP_temperature;BMP_pressure;BME280_temperature;BME280_humidity;BME280_pressure;Samples;Min_cycle;Max_cycle;Signal;HPM_P1;HPM_P2
2021/12/30 00:01:06;;;;;;;;;;;;;;;-5.30;97.38;99440.80;1619085;87;20455;-72
2021/12/30 00:03:36;;;;;;;;;;;;;;;-5.28;97.42;99438.73;1628463;85;21786;-72
2021/12/30 00:06:04;;;;;;;;;;;;;;;-5.26;97.25;99448.70;1632336;86;20634;-72
2021/12/30 00:08:34;;;;;;;;;;;;;;;-5.26;97.20;99445.51;1600003;88;20460;-72
2021/12/30 00:11:01;;;;;;;;;;;;;;;-5.26;96.96;99448.18;1622322;87;20092;-72
2021/12/30 00:13:30;;;;;;;;;;;;;;;-5.26;96.79;99446.84;1630760;87;20149;-71
2021/12/30 00:16:02;;;;;;;;;;;;;;;-5.26;96.76;99448.70;1624353;88;21050;-69
2021/12/30 00:18:28;;;;;;;;;;;;;;;-5.25;96.72;99444.47;1619101;87;20180;-69
2021/12/30 00:21:02;;;;;;;;;;;;;;;-5.25;96.65;99447.14;1608324;89;20154;-69
2021/12/30 00:23:30;;;;;;;;;;;;;;;-5.25;96.46;99440.97;1638268;86;20136;-68
2021/12/30 00:26:02;;;;;;;;;;;;;;;-5.27;96.23;99437.69;1629649;88;20120;-69
2021/12/30 00:28:30;;;;;;;;;;;;;;;-5.31;96.07;99435.97;1615071;87;21184;-69
2021/12/30 00:31:02;;;;;;;;;;;;;;;-5.32;96.05;99435.66;1632872;84;20494;-69
2021/12/30 00:33:34;;;;;;;;;;;;;;;-5.34;95.92;99435.05;1634534;86;20178;-71
2021/12/30 00:36:00;;;;;;;;;;;;;;;-5.38;95.86;99434.66;1647224;86;20159;-71
2021/12/30 00:38:34;;;;;;;;;;;;;;;-5.39;95.94;99438.89;1645799;86;20190;-71
2021/12/30 00:41:03;;;;;;;;;;;;;;;-5.40;95.96;99431.39;1665649;85;21171;-72
2021/12/30 00:43:34;;;;;;;;;;;;;;;-5.41;95.94;99437.77;1655322;85;20103;-71
2021/12/30 00:46:09;;;;;;;;;;;;;;;-5.41;96.04;99432.94;1641317;85;20206;-71
2021/12/30 00:48:38;;;;;;;;;;;;;;;-5.41;96.00;99431.08;1670086;85;20132;-71
2021/12/30 00:51:08;;;;;;;;;;;;;;;-5.42;95.97;99427.28;1667786;85;20125;-71
2021/12/30 00:53:38;;;;;;;;;;;;;;;-5.41;96.07;99427.07;1658199;85;21129;-71
2021/12/30 00:56:08;;;;;;;;;;;;;;;-5.40;96.03;99424.70;1661946;85;20173;-70
2021/12/30 00:58:38;;;;;;;;;;;;;;;-5.37;96.12;99425.61;1662212;86;20118;-70
2021/12/30 01:01:07;;;;;;;;;;;;;;;-5.33;96.14;99432.69;1639373;86;20118;-70
2021/12/30 01:03:46;;;;;;;;;;;;;;;-5.32;96.14;99430.31;1642974;85;20439;-70
2021/12/30 01:06:14;;;;;;;;;;;;;;;-5.36;96.01;99429.10;1648955;85;20120;-70
2021/12/30 01:08:45;;;;;;;;;;;;;;;-5.38;96.06;99424.48;1662150;86;20455;-70
2021/12/30 01:11:15;;;;;;;;;;;;;;;-5.40;96.25;99423.36;1659342;85;20091;-69
2021/12/30 01:13:51;;;;;;;;;;;;;;;-5.41;96.23;99421.72;1662565;85;20100;-69
2021/12/30 01:16:17;;;;;;;;;;;;;;;-5.43;96.35;99422.97;1665763;85;20101;-69
2021/12/30 01:21:23;;;;;;;;;;;;;;;-5.47;96.76;99429.27;1660205;84;21607;-69
2021/12/30 01:23:52;;;;;;;;;;;;;;;-5.49;96.88;99427.33;1666931;85;20088;-69
2021/12/30 01:26:20;;;;;;;;;;;;;;;-5.51;97.08;99428.05;1665110;85;20125;-69
2021/12/30 01:28:49;;;;;;;;;;;;;;;-5.52;97.21;99430.42;1659219;85;20110;-70
2021/12/30 01:31:34;;;;;;;;;;;;;;;-5.52;97.33;99429.09;1657405;84;21098;-69
2021/12/30 01:33:51;;;;;;;;;;;;;;;-5.51;97.48;99438.75;1649665;85;20162;-69
2021/12/30 01:36:21;;;;;;;;;;;;;;;-5.51;97.55;99427.23;1663178;85;20444;-69
2021/12/30 01:38:53;;;;;;;;;;;;;;;-5.51;97.59;99436.08;1662046;85;20473;-69
2021/12/30 01:41:24;;;;;;;;;;;;;;;-5.51;97.65;99428.05;1644110;86;20134;-70
2021/12/30 01:43:53;;;;;;;;;;;;;;;-5.47;97.50;99432.46;1655641;85;21378;-69
2021/12/30 01:46:27;;;;;;;;;;;;;;;-5.49;97.10;99435.34;1666441;85;20124;-69
2021/12/30 01:48:52;;;;;;;;;;;;;;;-5.47;97.11;99439.97;1656449;85;20138;-69
2021/12/30 01:51:22;;;;;;;;;;;;;;;-5.45;96.92;99439.23;1663189;85;20152;-70
2021/12/30 01:53:56;;;;;;;;;;;;;;;-5.42;96.80;99443.34;1635445;86;20139;-70
2021/12/30 01:56:22;;;;;;;;;;;;;;;-5.41;96.70;99435.61;1630078;86;20089;-71
2021/12/30 01:58:54;;;;;;;;;;;;;;;-5.37;96.55;99444.33;1656257;85;20150;-70
2021/12/30 02:01:27;;;;;;;;;;;;;;;-5.36;96.23;99441.96;1632459;85;20151;-70
2021/12/30 02:04:00;;;;;;;;;;;;;;;-5.35;96.13;99443.60;1624377;86;20171;-70
2021/12/30 02:06:30;;;;;;;;;;;;;;;-5.33;95.96;99447.41;1659608;85;20118;-71
2021/12/30 02:09:02;;;;;;;;;;;;;;;-5.34;95.68;99442.56;1667616;85;20294;-71
2021/12/30 02:11:41;;;;;;;;;;;;;;;-5.33;95.48;99452.23;1659450;85;20122;-70
2021/12/30 02:14:10;;;;;;;;;;;;;;;-5.35;95.32;99451.63;1658715;86;20129;-70
2021/12/30 02:16:39;;;;;;;;;;;;;;;-5.34;95.30;99453.27;1654639;85;20105;-69
2021/12/30 02:19:07;;;;;;;;;;;;;;;-5.34;95.09;99464.49;1662517;86;20130;-69
2021/12/30 02:21:40;;;;;;;;;;;;;;;-5.35;94.97;99460.99;1663676;85;21180;-69
2021/12/30 02:24:06;;;;;;;;;;;;;;;-5.36;94.95;99462.03;1669571;85;20129;-67
2021/12/30 02:26:52;;;;;;;;;;;;;;;-5.37;94.82;99471.09;1656287;85;20158;-67
2021/12/30 02:29:11;;;;;;;;;;;;;;;-5.38;94.88;99468.11;1654145;85;20514;-67
2021/12/30 02:31:41;;;;;;;;;;;;;;;-5.37;94.93;99469.75;1660942;85;20189;-67
2021/12/30 02:34:08;;;;;;;;;;;;;;;-5.37;94.76;99469.75;1658805;85;21830;-67
2021/12/30 02:36:39;;;;;;;;;;;;;;;-5.38;94.72;99465.44;1658243;85;20135;-68
2021/12/30 02:39:12;;;;;;;;;;;;;;;-5.37;94.64;99472.95;1664941;85;20101;-68
2021/12/30 02:41:42;;;;;;;;;;;;;;;-5.37;94.67;99463.06;1663897;85;20122;-69
2021/12/30 02:44:15;;;;;;;;;;;;;;;-5.39;94.33;99470.48;1635082;86;20133;-68
2021/12/30 02:46:46;;;;;;;;;;;;;;;-5.44;94.15;99469.48;1663070;85;21153;-68
2021/12/30 02:49:13;;;;;;;;;;;;;;;-5.51;94.13;99468.18;1654965;85;20205;-68
2021/12/30 02:51:44;;;;;;;;;;;;;;;-5.55;94.29;99474.98;1655973;85;20098;-69
2021/12/30 02:54:12;;;;;;;;;;;;;;;-5.59;94.36;99476.45;1657504;86;20089;-69
2021/12/30 02:56:47;;;;;;;;;;;;;;;-5.60;94.58;99476.14;1655287;85;20117;-68
2021/12/30 02:59:11;;;;;;;;;;;;;;;-5.63;94.49;99481.09;1657448;86;22270;-68
2021/12/30 03:01:47;;;;;;;;;;;;;;;-5.65;94.77;99483.98;1649167;85;20121;-68
2021/12/30 03:04:12;;;;;;;;;;;;;;;-5.66;94.62;99489.03;1656930;86;20089;-68
2021/12/30 03:06:41;;;;;;;;;;;;;;;-5.68;94.73;99491.09;1640265;86;20130;-69
2021/12/30 03:09:08;;;;;;;;;;;;;;;-5.72;94.61;99495.22;1662995;84;20820;-69
2021/12/30 03:11:36;;;;;;;;;;;;;;;-5.75;94.59;99495.64;1619446;86;21518;-68
2021/12/30 03:14:09;;;;;;;;;;;;;;;-5.76;94.73;99492.15;1621906;86;20168;-69
2021/12/30 03:16:42;;;;;;;;;;;;;;;-5.76;94.75;99496.16;1629982;86;20127;-69
2021/12/30 03:19:09;;;;;;;;;;;;;;;-5.74;94.71;99505.30;1627123;86;20115;-69
2021/12/30 03:21:40;;;;;;;;;;;;;;;-5.78;94.49;99509.47;1627227;87;20147;-69
2021/12/30 03:24:08;;;;;;;;;;;;;;;-5.80;94.48;99513.69;1649637;85;21189;-69
2021/12/30 03:26:54;;;;;;;;;;;;;;;-5.83;94.45;99516.78;1635512;85;20121;-70
2021/12/30 03:29:09;;;;;;;;;;;;;;;-5.85;94.32;99514.02;1652207;85;20178;-69
2021/12/30 03:31:43;;;;;;;;;;;;;;;-5.88;94.34;99523.78;1667366;85;20084;-70
2021/12/30 03:34:09;;;;;;;;;;;;;;;-5.91;94.41;99522.90;1656303;85;20105;-70
2021/12/30 03:36:37;;;;;;;;;;;;;;;-5.93;94.53;99523.63;1664347;86;21171;-69
2021/12/30 03:39:14;;;;;;;;;;;;;;;-5.95;94.64;99519.83;1630446;86;20134;-69
2021/12/30 03:41:41;;;;;;;;;;;;;;;-5.94;94.71;99527.33;1667079;85;20160;-70
2021/12/30 03:44:13;;;;;;;;;;;;;;;-5.93;94.79;99529.79;1643216;85;20439;-70
2021/12/30 03:46:43;;;;;;;;;;;;;;;-5.90;94.89;99527.22;1673178;85;20121;-69
2021/12/30 03:49:10;;;;;;;;;;;;;;;-5.88;94.82;99530.47;1647126;85;21101;-68
2021/12/30 03:51:44;;;;;;;;;;;;;;;-5.89;94.43;99530.19;1637374;85;20130;-68
2021/12/30 03:54:10;;;;;;;;;;;;;;;-5.93;94.50;99539.15;1655559;85;20091;-68
2021/12/30 03:56:41;;;;;;;;;;;;;;;-5.91;94.57;99548.30;1648874;85;20121;-69
2021/12/30 03:59:13;;;;;;;;;;;;;;;-5.93;94.41;99546.34;1638524;86;20465;-69
2021/12/30 04:01:44;;;;;;;;;;;;;;;-5.97;94.44;99544.61;1665042;85;21083;-69
2021/12/30 04:04:16;;;;;;;;;;;;;;;-6.01;94.38;99544.20;1671509;85;20087;-69
2021/12/30 04:06:46;;;;;;;;;;;;;;;-6.00;94.64;99547.18;1659231;85;20088;-70
2021/12/30 04:09:13;;;;;;;;;;;;;;;-6.00;94.58;99549.85;1659449;85;20155;-70
2021/12/30 04:11:40;;;;;;;;;;;;;;;-6.01;94.60;99545.53;1663425;85;20127;-70
2021/12/30 04:14:07;;;;;;;;;;;;;;;-6.02;94.60;99551.91;1633133;86;21161;-69
2021/12/30 04:16:35;;;;;;;;;;;;;;;-6.03;94.55;99548.11;1657947;85;20103;-69
2021/12/30 04:19:07;;;;;;;;;;;;;;;-6.04;94.60;99551.81;1665259;85;20142;-68
2021/12/30 04:21:39;;;;;;;;;;;;;;;-6.06;94.64;99555.20;1638475;86;20449;-68
2021/12/30 04:24:04;;;;;;;;;;;;;;;-6.07;94.67;99558.39;1662940;85;20118;-68
2021/12/30 04:26:35;;;;;;;;;;;;;;;-6.10;94.80;99560.14;1637481;86;20177;-68
2021/12/30 04:29:11;;;;;;;;;;;;;;;-6.15;94.60;99559.95;1660365;85;20120;-68
2021/12/30 04:31:35;;;;;;;;;;;;;;;-6.19;94.74;99565.91;1666577;85;20132;-70
2021/12/30 04:34:09;;;;;;;;;;;;;;;-6.20;94.95;99570.44;1650129;84;20140;-68
2021/12/30 04:36:44;;;;;;;;;;;;;;;-6.21;95.01;99572.80;1630904;85;20105;-69
2021/12/30 04:39:16;;;;;;;;;;;;;;;-6.21;95.10;99579.48;1665825;84;21128;-68
2021/12/30 04:41:44;;;;;;;;;;;;;;;-6.22;95.11;99580.50;1679236;84;20198;-68
2021/12/30 04:44:13;;;;;;;;;;;;;;;-6.22;95.11;99585.03;1670037;85;20161;-70
2021/12/30 04:46:43;;;;;;;;;;;;;;;-6.23;95.19;99586.88;1633137;84;20134;-70
2021/12/30 04:49:15;;;;;;;;;;;;;;;-6.22;95.32;99579.68;1669777;84;20133;-67
2021/12/30 04:51:44;;;;;;;;;;;;;;;-6.21;95.27;99579.48;1666173;84;21533;-71
2021/12/30 04:54:12;;;;;;;;;;;;;;;-6.25;95.10;99569.41;1617898;86;20166;-71
2021/12/30 04:56:40;;;;;;;;;;;;;;;-6.29;95.17;99574.34;1632945;85;20174;-70
2021/12/30 04:59:09;;;;;;;;;;;;;;;-6.31;95.17;99577.73;1664032;84;20190;-70
2021/12/30 05:01:38;;;;;;;;;;;;;;;-6.31;95.34;99577.73;1671196;84;20151;-68
2021/12/30 05:04:10;;;;;;;;;;;;;;;-6.29;95.59;99581.02;1671495;84;21051;-68
2021/12/30 05:06:36;;;;;;;;;;;;;;;-6.26;95.67;99584.62;1659993;84;20147;-69
2021/12/30 05:09:14;;;;;;;;;;;;;;;-6.22;95.80;99603.22;1655292;84;20456;-68
2021/12/30 05:11:42;;;;;;;;;;;;;;;-6.20;95.63;99598.48;1655895;84;20532;-69
2021/12/30 05:14:11;;;;;;;;;;;;;;;-6.20;95.53;99603.83;1646835;85;20484;-67
2021/12/30 05:16:44;;;;;;;;;;;;;;;-6.19;95.53;99604.66;1614441;86;20208;-70
2021/12/30 05:19:11;;;;;;;;;;;;;;;-6.17;95.94;99595.41;1631476;86;20117;-72
2021/12/30 05:21:43;;;;;;;;;;;;;;;-6.16;95.81;99590.88;1611045;86;20468;-69
2021/12/30 05:24:09;;;;;;;;;;;;;;;-6.16;95.60;99589.55;1616525;86;20136;-71
2021/12/30 05:26:36;;;;;;;;;;;;;;;-6.21;95.39;99583.48;1639890;86;20186;-68
2021/12/30 05:29:09;;;;;;;;;;;;;;;-6.24;95.43;99586.56;1637242;86;21142;-68
2021/12/30 05:31:35;;;;;;;;;;;;;;;-6.27;95.35;99596.33;1649597;86;20144;-69
2021/12/30 05:34:03;;;;;;;;;;;;;;;-6.31;95.31;99595.09;1636639;85;20206;-70
2021/12/30 05:36:38;;;;;;;;;;;;;;;-6.35;95.37;99601.36;1657017;84;20173;-68
2021/12/30 05:39:03;;;;;;;;;;;;;;;-6.35;95.43;99612.56;1629244;87;20128;-69
2021/12/30 05:41:31;;;;;;;;;;;;;;;-6.37;95.54;99613.31;1616537;87;20125;-69
2021/12/30 05:44:05;;;;;;;;;;;;;;;-6.41;95.55;99618.75;1608615;86;20186;-68
2021/12/30 05:46:37;;;;;;;;;;;;;;;-6.41;95.73;99626.25;1647602;86;20157;-68
2021/12/30 05:49:13;;;;;;;;;;;;;;;-6.40;95.94;99624.41;1608734;86;20176;-68
2021/12/30 05:51:41;;;;;;;;;;;;;;;-6.38;95.99;99633.86;1637997;86;20206;-69
2021/12/30 05:54:13;;;;;;;;;;;;;;;-6.35;96.11;99637.94;1651856;86;21117;-69
2021/12/30 05:56:39;;;;;;;;;;;;;;;-6.32;96.09;99641.02;1646291;86;20135;-68
2021/12/30 05:59:09;;;;;;;;;;;;;;;-6.30;95.97;99642.67;1631669;86;20179;-69
2021/12/30 06:01:40;;;;;;;;;;;;;;;-6.29;95.98;99642.98;1650971;86;20148;-71
2021/12/30 06:04:08;;;;;;;;;;;;;;;-6.28;95.94;99640.62;1648958;86;20143;-69
2021/12/30 06:06:38;;;;;;;;;;;;;;;-6.27;95.96;99640.92;1639305;86;20135;-69
2021/12/30 06:09:08;;;;;;;;;;;;;;;-6.29;95.85;99643.80;1628430;86;20148;-69
2021/12/30 06:11:35;;;;;;;;;;;;;;;-6.29;95.89;99652.33;1637543;86;20492;-69
2021/12/30 06:14:07;;;;;;;;;;;;;;;-6.30;95.86;99656.03;1631310;86;20408;-68
2021/12/30 06:16:36;;;;;;;;;;;;;;;-6.30;95.82;99657.36;1626413;86;20148;-72
2021/12/30 06:19:05;;;;;;;;;;;;;;;-6.32;95.88;99657.05;1641276;86;21081;-71
2021/12/30 06:21:38;;;;;;;;;;;;;;;-6.32;95.90;99658.91;1637817;86;20120;-76
2021/12/30 06:24:06;;;;;;;;;;;;;;;-6.32;95.84;99665.58;1636846;86;20197;-72
2021/12/30 06:26:32;;;;;;;;;;;;;;;-6.33;95.91;99663.94;1637779;86;20847;-74
2021/12/30 06:29:05;;;;;;;;;;;;;;;-6.31;95.99;99667.23;1614706;86;20180;-72
2021/12/30 06:31:37;;;;;;;;;;;;;;;-6.31;95.99;99661.88;1648389;85;21373;-74
2021/12/30 06:34:01;;;;;;;;;;;;;;;-6.32;95.92;99673.59;1616940;86;20153;-69
2021/12/30 06:36:37;;;;;;;;;;;;;;;-6.33;96.08;99674.11;1618700;86;20119;-69
2021/12/30 06:39:05;;;;;;;;;;;;;;;-6.30;96.19;99680.90;1635513;85;20170;-70
2021/12/30 06:41:39;;;;;;;;;;;;;;;-6.27;96.26;99685.01;1665368;83;20144;-68
2021/12/30 06:44:21;;;;;;;;;;;;;;;-6.24;96.17;99669.39;1661529;84;21158;-68
2021/12/30 06:46:39;;;;;;;;;;;;;;;-6.25;96.08;99663.74;1660220;84;20139;-68
2021/12/30 06:49:09;;;;;;;;;;;;;;;-6.24;96.05;99667.23;1668140;84;20133;-70
2021/12/30 06:51:36;;;;;;;;;;;;;;;-6.24;96.15;99681.42;1673669;85;20483;-69
2021/12/30 06:54:05;;;;;;;;;;;;;;;-6.22;96.09;99678.03;1666677;85;20166;-69
2021/12/30 06:56:35;;;;;;;;;;;;;;;-6.22;96.07;99678.03;1664886;85;21961;-70
2021/12/30 06:59:03;;;;;;;;;;;;;;;-6.22;96.05;99679.37;1667242;85;20152;-75
2021/12/30 07:01:31;;;;;;;;;;;;;;;-6.22;96.14;99683.89;1658668;85;20118;-76
2021/12/30 07:04:04;;;;;;;;;;;;;;;-6.19;96.42;99683.48;1638573;86;20483;-78
2021/12/30 07:06:32;;;;;;;;;;;;;;;-6.14;96.34;99693.88;1634206;86;20177;-77
2021/12/30 07:08:58;;;;;;;;;;;;;;;-6.13;96.14;99704.87;1635375;86;21075;-77
2021/12/30 07:11:24;;;;;;;;;;;;;;;-6.14;96.03;99691.71;1635944;86;20139;-80
2021/12/30 07:13:51;;;;;;;;;;;;;;;-6.14;96.04;99691.20;1638733;85;20140;-74
2021/12/30 07:16:17;;;;;;;;;;;;;;;-6.15;95.95;99686.88;1675598;84;20145;-80
2021/12/30 07:18:44;;;;;;;;;;;;;;;-6.16;95.93;99678.55;1677545;84;20117;-74
2021/12/30 07:21:10;;;;;;;;;;;;;;;-6.14;96.13;99683.69;1672439;85;21071;-72
2021/12/30 07:23:39;;;;;;;;;;;;;;;-6.09;96.44;99687.40;1650343;85;39956;-77
2021/12/30 07:26:05;;;;;;;;;;;;;;;-6.04;96.40;99687.61;1669678;84;20128;-78
2021/12/30 07:28:31;;;;;;;;;;;;;;;-6.01;96.22;99689.88;1677892;84;20174;-80
2021/12/30 07:30:57;;;;;;;;;;;;;;;-5.97;96.19;99684.94;1670068;84;20491;-77
2021/12/30 07:33:23;;;;;;;;;;;;;;;-5.91;96.24;99684.12;1668437;84;21513;-80
2021/12/30 07:35:50;;;;;;;;;;;;;;;-5.88;95.97;99682.34;1657122;84;20212;-82
2021/12/30 07:38:16;;;;;;;;;;;;;;;-5.85;95.90;99683.27;1649567;85;20205;-74
2021/12/30 07:40:43;;;;;;;;;;;;;;;-5.81;95.79;99681.83;1674169;84;20467;-74
2021/12/30 07:43:10;;;;;;;;;;;;;;;-5.78;95.60;99688.09;1663063;85;20476;-75
2021/12/30 07:45:37;;;;;;;;;;;;;;;-5.75;95.48;99688.17;1638934;84;21164;-72
2021/12/30 07:48:04;;;;;;;;;;;;;;;-5.73;95.27;99686.94;1672885;84;20142;-74
2021/12/30 07:50:39;;;;;;;;;;;;;;;-5.70;95.23;99693.20;1661584;84;20197;-72
2021/12/30 07:53:05;;;;;;;;;;;;;;;-5.67;95.26;99698.14;1660735;84;20197;-76
2021/12/30 07:55:35;;;;;;;;;;;;;;;-5.63;95.09;99701.22;1637873;84;20461;-76
2021/12/30 07:58:01;;;;;;;;;;;;;;;-5.62;94.84;99690.02;1679391;85;21656;-75
2021/12/30 08:00:28;;;;;;;;;;;;;;;-5.62;94.77;99685.48;1664766;84;20197;-75
2021/12/30 08:02:54;;;;;;;;;;;;;;;-5.61;94.62;99691.14;1660083;85;20132;-78
2021/12/30 08:05:22;;;;;;;;;;;;;;;-5.63;94.55;99692.38;1659719;84;20118;-76
2021/12/30 08:07:49;;;;;;;;;;;;;;;-5.67;94.42;99695.98;1679517;84;20163;-75
2021/12/30 08:10:18;;;;;;;;;;;;;;;-5.71;94.58;99694.23;1668824;84;21522;-81
2021/12/30 08:12:45;;;;;;;;;;;;;;;-5.70;94.81;99700.41;1668568;84;20471;-75
2021/12/30 08:15:12;;;;;;;;;;;;;;;-5.69;94.79;99702.88;1665980;84;20451;-75
2021/12/30 08:17:39;;;;;;;;;;;;;;;-5.68;94.89;99700.51;1652313;85;20624;-77
2021/12/30 08:20:06;;;;;;;;;;;;;;;-5.63;94.99;99713.27;1647051;85;20184;-76
2021/12/30 08:22:33;;;;;;;;;;;;;;;-5.57;95.10;99720.98;1631446;86;22055;-75
2021/12/30 08:25:00;;;;;;;;;;;;;;;-5.52;94.85;99719.84;1645829;86;20475;-75
2021/12/30 08:27:26;;;;;;;;;;;;;;;-5.53;94.47;99723.03;1657801;85;20470;-74
2021/12/30 08:29:52;;;;;;;;;;;;;;;-5.53;94.63;99717.68;1645115;86;20138;-73
2021/12/30 08:32:19;;;;;;;;;;;;;;;-5.51;94.49;99714.28;1611574;86;20285;-73
2021/12/30 08:34:45;;;;;;;;;;;;;;;-5.50;94.48;99711.92;1643013;86;20994;-76
2021/12/30 08:37:13;;;;;;;;;;;;;;;-5.51;94.34;99714.28;1644025;86;20268;-75
2021/12/30 08:39:40;;;;;;;;;;;;;;;-5.52;94.11;99715.31;1645085;86;20237;-75
2021/12/30 08:42:19;;;;;;;;;;;;;;;-5.56;93.93;99707.91;1647466;86;20203;-75
2021/12/30 08:44:47;;;;;;;;;;;;;;;-5.59;94.18;99709.14;1641610;86;20123;-74
2021/12/30 08:47:13;;;;;;;;;;;;;;;-5.57;94.20;99699.58;1641114;86;21520;-74
2021/12/30 08:49:44;;;;;;;;;;;;;;;-5.58;94.32;99696.08;1642754;86;20193;-75
2021/12/30 08:52:09;;;;;;;;;;;;;;;-5.54;94.47;99700.50;1636320;86;20131;-75
2021/12/30 08:54:36;;;;;;;;;;;;;;;-5.50;94.55;99699.05;1648454;86;20179;-74
2021/12/30 08:57:05;;;;;;;;;;;;;;;-5.44;94.46;99705.73;1650531;85;20159;-73
2021/12/30 08:59:35;;;;;;;;;;;;;;;-5.44;94.32;99702.23;1638797;85;21153;-73
2021/12/30 09:02:05;;;;;;;;;;;;;;;-5.44;94.17;99711.09;1641243;85;20185;-74
2021/12/30 09:04:32;;;;;;;;;;;;;;;-5.42;94.26;99706.86;1655401;84;20506;-74
2021/12/30 09:06:59;;;;;;;;;;;;;;;-5.39;94.27;99707.27;1634941;86;20187;-75
2021/12/30 09:09:27;;;;;;;;;;;;;;;-5.38;94.00;99708.09;1656809;85;20155;-73
2021/12/30 09:11:53;;;;;;;;;;;;;;;-5.40;93.58;99706.14;1656652;85;21524;-75
2021/12/30 09:14:19;;;;;;;;;;;;;;;-5.46;93.67;99699.77;1671628;84;20159;-73
2021/12/30 09:16:49;;;;;;;;;;;;;;;-5.50;93.85;99703.89;1671294;84;20115;-73
2021/12/30 09:19:16;;;;;;;;;;;;;;;-5.50;94.03;99702.55;1675161;85;20092;-75
2021/12/30 09:21:44;;;;;;;;;;;;;;;-5.47;94.44;99698.13;1668090;85;20128;-85
2021/12/30 09:24:11;;;;;;;;;;;;;;;-5.40;94.59;99697.60;1671011;84;22051;-79
2021/12/30 09:26:38;;;;;;;;;;;;;;;-5.34;94.53;99698.63;1679164;85;20099;-80
2021/12/30 09:29:10;;;;;;;;;;;;;;;-5.30;94.53;99699.84;1686240;85;20246;-82
2021/12/30 09:31:35;;;;;;;;;;;;;;;-5.26;94.34;99696.23;1686336;85;20139;-81
2021/12/30 09:34:01;;;;;;;;;;;;;;;-5.23;94.18;99691.80;1680625;85;20176;-81
2021/12/30 09:36:30;;;;;;;;;;;;;;;-5.26;93.64;99684.20;1674369;83;21168;-84
2021/12/30 09:38:56;;;;;;;;;;;;;;;-5.29;93.85;99685.95;1679494;85;20124;-84
2021/12/30 09:41:22;;;;;;;;;;;;;;;-5.29;93.67;99680.08;1669884;85;20109;-79
2021/12/30 09:43:49;;;;;;;;;;;;;;;-5.30;93.50;99678.44;1666501;83;20140;-77
2021/12/30 09:46:16;;;;;;;;;;;;;;;-5.33;93.52;99689.56;1668440;85;20105;-77
2021/12/30 09:48:43;;;;;;;;;;;;;;;-5.34;93.52;99687.92;1657125;85;21126;-71
2021/12/30 09:51:10;;;;;;;;;;;;;;;-5.40;93.32;99691.42;1680982;83;20100;-74
2021/12/30 09:53:37;;;;;;;;;;;;;;;-5.43;93.60;99684.64;1656821;84;20112;-83
2021/12/30 09:56:04;;;;;;;;;;;;;;;-5.43;93.71;99684.64;1666000;85;20202;-82
2021/12/30 09:58:31;;;;;;;;;;;;;;;-5.39;93.99;99695.75;1675566;85;20179;-81
2021/12/30 10:00:57;;;;;;;;;;;;;;;-5.36;93.79;99698.00;1674414;85;21112;-81
2021/12/30 10:03:24;;;;;;;;;;;;;;;-5.34;93.97;99694.09;1686122;83;20124;-77
2021/12/30 10:05:50;;;;;;;;;;;;;;;-5.27;94.08;99691.91;1668003;85;20139;-74
2021/12/30 10:08:24;;;;;;;;;;;;;;;-5.22;94.01;99687.58;1674810;84;20176;-78
2021/12/30 10:10:55;;;;;;;;;;;;;;;-5.17;93.63;99684.24;1682147;85;20088;-73
2021/12/30 10:13:24;;;;;;;;;;;;;;;-5.15;93.25;99689.69;1671972;85;21162;-72
2021/12/30 10:15:57;;;;;;;;;;;;;;;-5.14;93.42;99684.64;1684336;85;20447;-74
2021/12/30 10:18:28;;;;;;;;;;;;;;;-5.10;93.28;99684.53;1681677;85;20490;-80
2021/12/30 10:20:55;;;;;;;;;;;;;;;-5.12;92.53;99679.91;1637959;85;20201;-78
2021/12/30 10:23:23;;;;;;;;;;;;;;;-5.13;92.87;99669.41;1677784;85;20454;-84
2021/12/30 10:25:51;;;;;;;;;;;;;;;-5.07;93.22;99667.23;1686789;85;22214;-87
2021/12/30 10:28:31;;;;;;;;;;;;;;;-5.04;92.25;99658.77;1686535;85;20131;-85
2021/12/30 10:31:00;;;;;;;;;;;;;;;-5.05;92.17;99658.47;1686924;84;20096;-80
2021/12/30 10:33:29;;;;;;;;;;;;;;;-5.07;92.08;99656.52;1671921;85;20467;-74
2021/12/30 10:35:58;;;;;;;;;;;;;;;-5.05;92.18;99662.48;1646500;85;20141;-78
2021/12/30 10:38:29;;;;;;;;;;;;;;;-5.03;92.14;99663.09;1645677;85;21528;-80
2021/12/30 10:41:05;;;;;;;;;;;;;;;-5.02;91.71;99655.37;1635218;86;20219;-72
2021/12/30 10:44:04;;;;;;;;;;;;;;;-5.04;91.54;99642.19;1627163;86;20131;-74
2021/12/30 10:46:14;;;;;;;;;;;;;;;-5.05;91.35;99641.89;1628255;86;20253;-71
2021/12/30 10:48:50;;;;;;;;;;;;;;;-5.08;91.36;99642.31;1646908;86;20147;-75
2021/12/30 10:51:28;;;;;;;;;;;;;;;-5.09;91.55;99633.16;1635762;86;21079;-68
2021/12/30 10:54:03;;;;;;;;;;;;;;;-5.08;91.25;99628.92;1605389;86;20152;-71
2021/12/30 10:56:30;;;;;;;;;;;;;;;-5.08;91.30;99626.77;1634634;86;20323;-74
2021/12/30 10:59:15;;;;;;;;;;;;;;;-5.03;91.73;99625.61;1640177;86;20323;-68
2021/12/30 11:01:52;;;;;;;;;;;;;;;-5.00;91.31;99620.66;1626085;87;20129;-73
2021/12/30 11:04:19;;;;;;;;;;;;;;;-5.03;90.76;99618.92;1622217;87;21179;-68
2021/12/30 11:06:48;;;;;;;;;;;;;;;-5.06;90.98;99619.34;1636233;87;20115;-76
2021/12/30 11:09:21;;;;;;;;;;;;;;;-5.05;91.06;99625.00;1622891;87;20090;-67
2021/12/30 11:11:59;;;;;;;;;;;;;;;-5.02;91.01;99617.88;1599053;88;20135;-73
2021/12/30 11:14:24;;;;;;;;;;;;;;;-5.02;90.87;99619.22;1624385;87;20092;-76
2021/12/30 11:16:59;;;;;;;;;;;;;;;-4.98;91.34;99617.77;1626445;87;21052;-72
2021/12/30 11:19:32;;;;;;;;;;;;;;;-4.92;91.03;99619.59;1626559;88;20129;-72
2021/12/30 11:22:02;;;;;;;;;;;;;;;-4.89;90.69;99625.03;1626339;88;20448;-71
2021/12/30 11:24:33;;;;;;;;;;;;;;;-4.88;90.72;99622.14;1626530;88;20092;-70
2021/12/30 11:27:03;;;;;;;;;;;;;;;-4.88;90.42;99617.31;1625846;87;20147;-73
2021/12/30 11:29:35;;;;;;;;;;;;;;;-4.91;90.12;99625.77;1605619;88;20108;-73
2021/12/30 11:32:04;;;;;;;;;;;;;;;-4.98;90.03;99616.42;1606000;88;20105;-71
2021/12/30 11:34:36;;;;;;;;;;;;;;;-5.00;90.21;99629.20;1625359;87;20109;-64
2021/12/30 11:37:03;;;;;;;;;;;;;;;-5.02;90.46;99629.94;1633254;87;20438;-69
2021/12/30 11:39:37;;;;;;;;;;;;;;;-5.02;90.54;99625.92;1612226;87;20104;-70
2021/12/30 11:42:08;;;;;;;;;;;;;;;-5.02;90.65;99622.72;1626459;88;21084;-71
2021/12/30 11:44:47;;;;;;;;;;;;;;;-5.02;90.71;99620.56;1606114;88;20125;-70
2021/12/30 11:47:37;;;;;;;;;;;;;;;-5.02;90.80;99621.38;1626679;87;20121;-71
2021/12/30 11:50:12;;;;;;;;;;;;;;;-5.00;91.09;99615.81;1626204;88;20537;-72
2021/12/30 11:52:48;;;;;;;;;;;;;;;-4.97;90.98;99613.23;1625801;88;20132;-73
2021/12/30 11:55:45;;;;;;;;;;;;;;;-4.94;90.91;99604.25;1605631;88;20120;-71
2021/12/30 11:58:47;;;;;;;;;;;;;;;-4.89;90.98;99599.59;1626432;88;20440;-72
2021/12/30 12:01:17;;;;;;;;;;;;;;;-4.90;90.73;99600.12;1625847;87;20141;-75
2021/12/30 12:03:49;;;;;;;;;;;;;;;-4.87;90.95;99598.87;1617183;87;20107;-70
2021/12/30 12:06:42;;;;;;;;;;;;;;;-4.85;90.94;99592.78;1628179;87;20093;-80
2021/12/30 12:09:25;;;;;;;;;;;;;;;-4.84;90.96;99592.56;1626049;88;21154;-65
2021/12/30 12:12:01;;;;;;;;;;;;;;;-4.80;91.22;99593.78;1643019;86;20113;-69
2021/12/30 12:14:30;;;;;;;;;;;;;;;-4.75;91.05;99597.15;1638334;87;20160;-64
2021/12/30 12:17:12;;;;;;;;;;;;;;;-4.74;90.95;99606.31;1625581;87;20499;-68
2021/12/30 12:19:44;;;;;;;;;;;;;;;-4.72;90.71;99614.13;1625943;88;20100;-66
2021/12/30 12:22:21;;;;;;;;;;;;;;;-4.74;90.70;99619.70;1606515;88;20093;-66
2021/12/30 12:25:13;;;;;;;;;;;;;;;-4.75;90.54;99628.77;1626513;88;20162;-72
2021/12/30 12:27:46;;;;;;;;;;;;;;;-4.78;90.40;99632.40;1626521;88;20104;-72
2021/12/30 12:30:35;;;;;;;;;;;;;;;-4.82;90.49;99634.68;1625976;88;20122;-68
2021/12/30 12:33:23;;;;;;;;;;;;;;;-4.82;90.89;99629.33;1626387;88;20108;-69
2021/12/30 12:35:53;;;;;;;;;;;;;;;-4.78;90.86;99628.37;1605777;88;20085;-69
2021/12/30 12:38:44;;;;;;;;;;;;;;;-4.77;90.82;99617.97;1625840;88;20200;-68
2021/12/30 12:41:24;;;;;;;;;;;;;;;-4.78;90.85;99614.98;1555204;91;20138;-74
2021/12/30 12:43:53;;;;;;;;;;;;;;;-4.76;91.11;99615.08;1555216;91;20113;-72
2021/12/30 12:46:41;;;;;;;;;;;;;;;-4.75;90.89;99611.88;1589684;88;20278;-70
2021/12/30 12:49:14;;;;;;;;;;;;;;;-4.78;90.98;99610.45;1606825;88;21174;-71
2021/12/30 12:51:48;;;;;;;;;;;;;;;-4.80;91.11;99613.86;1625699;88;20125;-65
2021/12/30 12:54:15;;;;;;;;;;;;;;;-4.81;91.14;99614.08;1625777;88;20133;-64
2021/12/30 12:56:44;;;;;;;;;;;;;;;-4.82;91.40;99610.58;1586172;88;20143;-65
2021/12/30 12:59:18;;;;;;;;;;;;;;;-4.79;91.51;99605.31;1626746;87;20096;-67
2021/12/30 13:01:46;;;;;;;;;;;;;;;-4.80;91.25;99608.51;1637637;86;21253;-66
2021/12/30 13:04:20;;;;;;;;;;;;;;;-4.81;91.45;99620.25;1631900;86;20439;-65
2021/12/30 13:06:49;;;;;;;;;;;;;;;-4.82;91.19;99615.94;1634670;86;20463;-66